Time;durP1;ratioP1;P1;durP2;ratioP2;P2;SDS_P1;SDS_P2;PMS_P1;PMS_P2;Temp;Humidity;BMP_temperature;BMP_pressure;BME280_temperature;BME280_humidity;BME280_pressure;Samples;Min_cycle;Max_cycle;Signal;HPM_P1;HPM_P2
2023/12/12 00:00:00;;;;;;;6.00;2.45;;;;;;;9.95;66.46;97483.97;5061730;28;20189;-74
2023/12/12 00:02:28;;;;;;;5.00;2.55;;;;;;;9.94;66.89;97487.72;5044138;28;20209;-74
2023/12/12 00:04:54;;;;;;;7.25;2.25;;;;;;;10.03;66.73;97491.03;5058138;28;20215;-75
2023/12/12 00:07:21;;;;;;;6.43;2.30;;;;;;;9.98;66.61;97488.13;5043768;28;20227;-74
2023/12/12 00:09:47;;;;;;;6.78;2.75;;;;;;;9.96;66.88;97491.03;5060375;28;20207;-74
2023/12/12 00:12:14;;;;;;;8.27;2.60;;;;;;;9.87;67.24;97492.28;5077163;28;20213;-74
2023/12/12 00:14:40;;;;;;;5.53;2.33;;;;;;;9.94;67.16;97487.72;5058452;28;20212;-74
2023/12/12 00:17:08;;;;;;;6.10;2.88;;;;;;;9.77;67.45;97487.31;5076774;28;20197;-74
2023/12/12 00:19:41;;;;;;;7.50;3.10;;;;;;;9.66;68.10;97487.16;5059277;28;20197;-74
2023/12/12 00:22:07;;;;;;;10.63;2.47;;;;;;;9.67;67.89;97491.50;5075295;28;20211;-75
2023/12/12 00:24:34;;;;;;;7.20;2.95;;;;;;;9.54;68.45;97491.50;5066673;28;20283;-74
2023/12/12 00:27:02;;;;;;;5.80;3.13;;;;;;;9.57;68.21;97491.09;5059137;28;20227;-74
2023/12/12 00:29:30;;;;;;;7.97;3.22;;;;;;;9.54;68.63;97491.50;5057893;28;20283;-74
2023/12/12 00:31:56;;;;;;;5.63;2.50;;;;;;;9.61;68.11;97492.34;5059035;28;20223;-74
2023/12/12 00:34:23;;;;;;;8.75;2.47;;;;;;;9.49;68.21;97499.41;5059758;28;20204;-74
2023/12/12 00:36:51;;;;;;;5.70;2.40;;;;;;;9.30;69.00;97495.69;5059345;28;20189;-74
2023/12/12 00:39:17;;;;;;;5.82;3.35;;;;;;;9.66;68.07;97500.66;5042066;28;20323;-74
2023/12/12 00:41:44;;;;;;;7.18;2.80;;;;;;;9.61;68.30;97492.34;5059927;28;20188;-74
2023/12/12 00:44:12;;;;;;;5.70;2.95;;;;;;;9.50;68.63;97491.09;5058279;28;20231;-74
2023/12/12 00:46:38;;;;;;;7.22;2.58;;;;;;;9.48;68.96;97503.16;5056716;28;20234;-74
2023/12/12 00:49:05;;;;;;;6.63;2.50;;;;;;;9.46;69.26;97506.06;5059586;28;20204;-74
2023/12/12 00:51:32;;;;;;;7.97;2.97;;;;;;;9.57;68.71;97501.91;5054902;28;20686;-73
2023/12/12 00:54:00;;;;;;;7.03;2.83;;;;;;;9.48;68.89;97498.56;5060240;28;20662;-74
2023/12/12 00:56:28;;;;;;;7.18;3.00;;;;;;;9.63;68.65;97495.66;5057565;28;20263;-74
2023/12/12 00:58:54;;;;;;;6.65;2.85;;;;;;;9.40;69.73;97502.34;5058413;28;20295;-74
2023/12/12 01:01:21;;;;;;;5.25;2.63;;;;;;;9.32;69.56;97497.13;5060072;28;20204;-74
2023/12/12 01:03:47;;;;;;;5.18;2.50;;;;;;;9.42;69.09;97511.03;5059295;28;20200;-74
2023/12/12 01:06:22;;;;;;;6.50;2.30;;;;;;;9.53;68.80;97501.47;5059449;28;20553;-74
2023/12/12 01:08:49;;;;;;;5.57;2.45;;;;;;;9.51;68.49;97497.31;5055867;28;20207;-74
2023/12/12 01:11:17;;;;;;;5.20;2.45;;;;;;;9.32;69.45;97491.75;5068611;28;20204;-72
2023/12/12 01:13:44;;;;;;;4.72;2.65;;;;;;;9.39;69.19;97492.56;5059510;28;20567;-74
2023/12/12 01:16:10;;;;;;;5.00;2.47;;;;;;;9.35;69.61;97494.03;5057757;28;20201;-74
2023/12/12 01:18:37;;;;;;;6.57;2.33;;;;;;;9.33;69.54;97508.78;5056674;28;20701;-74
2023/12/12 01:21:04;;;;;;;7.25;3.40;;;;;;;9.31;69.54;97500.88;5060010;28;20207;-73
2023/12/12 01:23:37;;;;;;;8.18;2.67;;;;;;;9.21;70.20;97505.00;5060839;28;20200;-74
2023/12/12 01:26:04;;;;;;;4.20;2.00;;;;;;;9.10;70.34;97509.16;5058318;28;20211;-74
2023/12/12 01:28:32;;;;;;;6.22;2.50;;;;;;;9.16;70.16;97494.00;5058269;28;20312;-74
2023/12/12 01:30:59;;;;;;;5.22;2.20;;;;;;;9.25;70.34;97499.00;5057988;28;20546;-74
2023/12/12 01:33:26;;;;;;;6.20;2.40;;;;;;;9.09;70.54;97499.41;5056851;28;20674;-75
2023/12/12 01:35:52;;;;;;;7.18;2.13;;;;;;;9.12;70.24;97498.97;5040995;28;20200;-74
2023/12/12 01:38:19;;;;;;;5.38;2.03;;;;;;;9.06;70.83;97499.81;5058407;28;20201;-74
2023/12/12 01:40:47;;;;;;;8.13;2.90;;;;;;;9.33;70.40;97495.28;5039012;28;20231;-74
2023/12/12 01:43:14;;;;;;;4.07;2.00;;;;;;;9.37;70.19;97483.03;5058690;28;20197;-74
2023/12/12 01:45:43;;;;;;;4.10;2.20;;;;;;;9.33;70.03;97479.91;5056850;28;20292;-74
2023/12/12 01:48:09;;;;;;;7.13;2.78;;;;;;;9.33;70.10;97479.06;5058089;28;20213;-74
2023/12/12 01:50:36;;;;;;;5.63;3.08;;;;;;;9.37;69.88;97470.34;5056618;28;20205;-74
2023/12/12 01:53:03;;;;;;;7.55;2.78;;;;;;;9.30;70.09;97464.09;5057832;28;20204;-74
2023/12/12 01:55:32;;;;;;;8.02;2.50;;;;;;;9.38;69.95;97468.47;5057278;28;20557;-74
2023/12/12 01:57:58;;;;;;;5.03;1.85;;;;;;;9.46;69.67;97472.81;5061398;28;20261;-74
2023/12/12 02:00:25;;;;;;;5.22;2.20;;;;;;;9.50;69.33;97474.88;5061578;28;20205;-74
2023/12/12 02:02:53;;;;;;;7.18;2.65;;;;;;;9.53;69.50;97477.16;5040419;28;20213;-74
2023/12/12 02:05:20;;;;;;;5.97;1.98;;;;;;;9.35;70.02;97466.19;5065994;28;20205;-74
2023/12/12 02:07:50;;;;;;;3.78;2.22;;;;;;;9.33;69.97;97469.09;5039712;28;20225;-75
2023/12/12 02:10:16;;;;;;;5.68;1.95;;;;;;;9.41;70.08;97460.78;5058733;28;20211;-73
2023/12/12 02:12:43;;;;;;;5.35;2.00;;;;;;;9.29;70.79;97462.44;5061268;28;20270;-74
2023/12/12 02:15:10;;;;;;;8.10;2.00;;;;;;;9.24;71.08;97467.63;5062625;28;20205;-74
2023/12/12 02:17:37;;;;;;;3.10;1.98;;;;;;;9.37;70.96;97470.34;5093671;28;20664;-74
2023/12/12 02:20:06;;;;;;;3.63;1.73;;;;;;;9.43;70.87;97477.59;5061981;28;20258;-74
2023/12/12 02:22:34;;;;;;;5.22;2.38;;;;;;;9.37;71.04;97459.53;5060351;28;20193;-74
2023/12/12 02:25:01;;;;;;;4.78;1.42;;;;;;;9.41;71.26;97458.09;5062987;28;20244;-74
2023/12/12 02:27:27;;;;;;;3.90;1.80;;;;;;;9.55;70.17;97447.25;5078074;28;20219;-74
2023/12/12 02:29:54;;;;;;;3.65;1.95;;;;;;;9.51;70.57;97432.50;5044963;28;20201;-74
2023/12/12 02:32:21;;;;;;;4.43;1.90;;;;;;;9.45;70.42;97439.56;5063028;28;20205;-74
2023/12/12 02:34:48;;;;;;;7.50;2.28;;;;;;;9.25;71.42;97433.38;5061189;28;20242;-74
2023/12/12 02:37:14;;;;;;;4.80;1.98;;;;;;;9.41;71.05;97432.94;5062479;28;20201;-74
2023/12/12 02:39:43;;;;;;;5.60;2.15;;;;;;;9.36;71.34;97436.28;5063075;28;20245;-74
2023/12/12 02:42:09;;;;;;;5.35;2.45;;;;;;;9.09;72.37;97443.56;5046383;28;20209;-74
2023/12/12 02:44:36;;;;;;;6.32;2.00;;;;;;;9.26;72.01;97435.88;5077527;28;20210;-74
2023/12/12 02:47:03;;;;;;;4.05;1.75;;;;;;;9.25;72.00;97436.91;5060352;28;20220;-74
2023/12/12 02:49:29;;;;;;;5.40;2.28;;;;;;;9.09;72.50;97445.44;5059886;28;20204;-74
2023/12/12 02:51:56;;;;;;;4.85;2.35;;;;;;;9.20;72.37;97457.44;5044258;28;20201;-74
2023/12/12 02:54:22;;;;;;;4.40;2.05;;;;;;;9.04;72.72;97446.06;5044290;28;20224;-74
2023/12/12 02:56:50;;;;;;;4.10;1.40;;;;;;;8.95;72.98;97441.88;5061882;28;22048;-74
2023/12/12 02:59:17;;;;;;;3.33;1.77;;;;;;;8.82;73.81;97452.66;5043908;28;20873;-73
2023/12/12 03:01:43;;;;;;;3.67;2.00;;;;;;;8.83;74.08;97448.09;5059922;28;20201;-74
2023/12/12 03:04:10;;;;;;;6.55;2.13;;;;;;;8.90;74.15;97451.63;5059748;28;21453;-74
2023/12/12 03:06:37;;;;;;;6.80;2.13;;;;;;;8.83;74.36;97440.81;5060384;28;20680;-74
2023/12/12 03:09:04;;;;;;;6.22;2.22;;;;;;;8.88;74.25;97432.13;5077930;28;20300;-74
2023/12/12 03:11:30;;;;;;;3.85;1.77;;;;;;;9.05;73.74;97433.38;5093275;28;20209;-74
2023/12/12 03:13:58;;;;;;;3.30;1.95;;;;;;;8.96;74.07;97435.44;5066817;28;20538;-74
2023/12/12 03:16:25;;;;;;;5.88;1.95;;;;;;;8.59;74.17;97399.09;5040557;28;20206;-74
2023/12/12 03:18:51;;;;;;;3.83;1.70;;;;;;;8.86;74.23;97450.38;5061492;28;20650;-73
2023/12/12 03:21:18;;;;;;;2.78;1.60;;;;;;;8.85;74.55;97443.31;5060538;28;20200;-74
2023/12/12 03:23:45;;;;;;;2.30;1.65;;;;;;;8.75;75.20;97433.78;5061473;28;20197;-74
2023/12/12 03:26:12;;;;;;;4.63;1.85;;;;;;;8.50;76.12;97429.97;5047707;28;20320;-75
2023/12/12 03:28:38;;;;;;;3.00;1.67;;;;;;;8.56;75.92;97417.53;5091979;28;20243;-73
2023/12/12 03:31:06;;;;;;;4.70;2.17;;;;;;;8.58;76.04;97427.09;5059304;28;20203;-73
2023/12/12 03:33:34;;;;;;;4.95;2.15;;;;;;;8.63;76.14;97416.53;5059659;28;20211;-74
2023/12/12 03:36:01;;;;;;;3.47;1.70;;;;;;;8.63;76.01;97408.44;5092773;28;20201;-74
2023/12/12 03:38:27;;;;;;;4.88;1.60;;;;;;;8.63;76.10;97408.44;5057489;28;20201;-73
2023/12/12 03:40:54;;;;;;;2.78;1.58;;;;;;;8.51;76.72;97410.06;5044367;28;20213;-74
2023/12/12 03:43:21;;;;;;;4.88;2.17;;;;;;;8.54;76.54;97412.34;5042541;28;20196;-74
2023/12/12 03:45:47;;;;;;;3.22;1.60;;;;;;;8.45;77.19;97412.78;5043030;28;20266;-74
2023/12/12 03:48:15;;;;;;;4.57;2.00;;;;;;;8.59;76.63;97417.97;5062788;28;20216;-74
2023/12/12 03:50:42;;;;;;;2.60;1.65;;;;;;;8.51;76.87;97399.28;5060919;28;20209;-74
2023/12/12 03:53:09;;;;;;;4.97;1.48;;;;;;;8.51;76.93;97399.28;5059874;28;20207;-74
2023/12/12 03:55:36;;;;;;;3.58;1.65;;;;;;;8.49;76.90;97398.66;5056850;28;20201;-75
2023/12/12 03:58:03;;;;;;;1.67;1.20;;;;;;;8.56;77.24;97394.09;5092788;28;20196;-74
2023/12/12 04:00:29;;;;;;;2.22;1.35;;;;;;;8.58;76.92;97400.13;5059565;28;20213;-74
2023/12/12 04:02:56;;;;;;;3.70;1.60;;;;;;;8.57;76.93;97387.69;5094305;28;20208;-74
2023/12/12 04:05:23;;;;;;;3.55;1.65;;;;;;;8.72;76.58;97395.59;5059667;28;20201;-74
2023/12/12 04:07:50;;;;;;;1.88;1.50;;;;;;;8.84;75.88;97387.69;5061139;28;20225;-74
2023/12/12 04:10:18;;;;;;;1.85;1.38;;;;;;;9.09;74.99;97383.34;5059262;28;20209;-74
2023/12/12 04:12:44;;;;;;;1.65;1.48;;;;;;;8.99;75.00;97382.94;5059578;28;20646;-74
2023/12/12 04:15:11;;;;;;;3.28;1.67;;;;;;;9.00;74.81;97376.50;5058022;28;20212;-74
2023/12/12 04:17:37;;;;;;;3.10;1.60;;;;;;;9.05;74.73;97382.09;5042065;28;20203;-73
2023/12/12 04:20:05;;;;;;;3.08;1.67;;;;;;;8.85;74.91;97370.47;5066245;28;20209;-75
2023/12/12 04:22:33;;;;;;;2.92;1.55;;;;;;;8.71;75.31;97362.38;5064611;28;20204;-75
2023/12/12 04:24:59;;;;;;;4.40;2.20;;;;;;;8.63;76.03;97365.28;5043553;28;20201;-74
2023/12/12 04:27:26;;;;;;;4.72;2.13;;;;;;;8.30;77.11;97376.00;5056357;28;20209;-74
2023/12/12 04:29:53;;;;;;;3.13;2.03;;;;;;;8.40;76.82;97375.63;5058613;28;20204;-74
2023/12/12 04:32:18;;;;;;;2.95;1.67;;;;;;;8.50;76.50;97367.94;5059892;28;20258;-74
2023/12/12 04:34:45;;;;;;;2.97;1.83;;;;;;;8.40;76.87;97364.84;5075402;28;20200;-74
2023/12/12 04:37:12;;;;;;;3.55;2.20;;;;;;;8.29;77.76;97362.72;5059986;28;20215;-74
2023/12/12 04:39:41;;;;;;;4.10;1.90;;;;;;;8.32;77.49;97359.59;5059774;28;20234;-74
2023/12/12 04:42:07;;;;;;;4.10;1.80;;;;;;;8.18;77.60;97379.47;5060860;28;20204;-74
2023/12/12 04:44:34;;;;;;;2.35;1.60;;;;;;;8.17;78.16;97380.50;5060753;28;20211;-75
2023/12/12 04:47:01;;;;;;;2.50;1.85;;;;;;;8.04;78.46;97371.38;5054725;28;20231;-78
2023/12/12 04:49:27;;;;;;;5.22;2.00;;;;;;;7.98;78.97;97374.88;5067962;28;20220;-76
2023/12/12 04:51:54;;;;;;;5.20;1.65;;;;;;;7.98;78.69;97372.16;5045808;28;20213;-75
2023/12/12 04:54:21;;;;;;;3.83;1.88;;;;;;;7.96;78.59;97371.53;5043407;28;20197;-75
2023/12/12 04:56:49;;;;;;;3.45;1.95;;;;;;;7.97;78.64;97365.13;5102334;28;20217;-75
2023/12/12 04:59:15;;;;;;;3.78;1.65;;;;;;;7.91;78.74;97363.22;5053955;28;20204;-77
2023/12/12 05:01:43;;;;;;;4.25;1.90;;;;;;;7.81;79.13;97349.28;5067372;28;20193;-74
2023/12/12 05:04:09;;;;;;;3.53;2.10;;;;;;;7.71;79.43;97343.47;5058331;28;20233;-76
2023/12/12 05:06:37;;;;;;;2.33;1.40;;;;;;;7.91;79.90;97348.94;5052754;28;20201;-76
2023/12/12 05:09:04;;;;;;;4.10;1.92;;;;;;;8.07;78.77;97346.72;5063166;28;20256;-75
2023/12/12 05:11:31;;;;;;;5.88;1.75;;;;;;;7.96;79.02;97358.06;5041036;28;20327;-76
2023/12/12 05:14:04;;;;;;;2.55;1.70;;;;;;;7.98;78.78;97358.69;5090297;28;20218;-76
2023/12/12 05:16:31;;;;;;;2.95;2.10;;;;;;;7.97;78.81;97362.44;5058175;28;20250;-73
2023/12/12 05:18:57;;;;;;;2.40;1.50;;;;;;;7.88;79.34;97370.88;5059281;28;20204;-73
2023/12/12 05:21:24;;;;;;;3.85;1.70;;;;;;;7.84;79.28;97362.38;5054780;28;20207;-74
2023/12/12 05:23:51;;;;;;;3.20;1.80;;;;;;;7.73;79.84;97357.56;5042657;28;20907;-75
2023/12/12 05:26:18;;;;;;;5.53;2.38;;;;;;;7.69;80.27;97350.94;5071485;28;20693;-72
2023/12/12 05:28:45;;;;;;;2.47;1.77;;;;;;;7.81;80.12;97361.94;5060752;28;20624;-73
2023/12/12 05:31:13;;;;;;;2.10;1.63;;;;;;;7.79;79.91;97372.09;5056150;28;20654;-73
2023/12/12 05:33:40;;;;;;;5.05;2.08;;;;;;;7.75;79.92;97369.81;5090113;28;20888;-74
2023/12/12 05:36:07;;;;;;;3.50;2.25;;;;;;;7.81;79.80;97365.47;5061916;28;20193;-76
2023/12/12 05:38:34;;;;;;;2.63;1.70;;;;;;;7.77;80.21;97358.84;5059125;28;20197;-75
2023/12/12 05:41:01;;;;;;;2.85;1.90;;;;;;;7.72;80.49;97351.38;5060698;28;20203;-74
2023/12/12 05:43:27;;;;;;;2.80;2.30;;;;;;;7.73;80.70;97346.81;5062009;28;20212;-71
2023/12/12 05:45:55;;;;;;;3.95;2.08;;;;;;;7.76;80.58;97351.78;5065656;28;20555;-73
2023/12/12 05:48:23;;;;;;;3.88;1.70;;;;;;;7.84;80.02;97338.13;5061707;28;20217;-74
2023/12/12 05:50:49;;;;;;;3.83;1.88;;;;;;;7.69;80.53;97334.78;5059277;28;20208;-74
2023/12/12 05:53:18;;;;;;;5.47;2.05;;;;;;;7.74;80.11;97322.38;5094710;28;20201;-74
2023/12/12 05:55:45;;;;;;;2.40;1.90;;;;;;;7.82;79.61;97321.34;5063116;28;20296;-74
2023/12/12 05:58:11;;;;;;;4.30;2.13;;;;;;;7.84;79.38;97321.97;5061555;28;20203;-73
2023/12/12 06:00:39;;;;;;;2.88;1.60;;;;;;;7.80;79.50;97344.16;5060711;28;20549;-71
2023/12/12 06:03:08;;;;;;;3.47;2.00;;;;;;;8.01;78.81;97338.59;5066407;28;20193;-76
2023/12/12 06:05:36;;;;;;;3.33;1.98;;;;;;;7.86;79.19;97341.44;5089085;28;20251;-76
2023/12/12 06:08:02;;;;;;;5.07;2.60;;;;;;;7.58;80.43;97346.09;5080425;28;20225;-75
2023/12/12 06:10:30;;;;;;;3.58;2.95;;;;;;;7.54;80.59;97358.31;5064364;28;20203;-76
2023/12/12 06:12:58;;;;;;;3.67;2.15;;;;;;;7.67;80.01;97359.22;5095847;28;20209;-76
2023/12/12 06:15:25;;;;;;;4.38;2.20;;;;;;;7.69;79.86;97356.31;5046880;28;20203;-75
2023/12/12 06:17:52;;;;;;;3.70;2.15;;;;;;;7.78;79.61;97352.41;5038829;28;20220;-76
2023/12/12 06:20:18;;;;;;;7.95;3.00;;;;;;;7.61;79.95;97351.09;5062795;28;20219;-76
2023/12/12 06:22:46;;;;;;;5.53;2.90;;;;;;;7.77;79.07;97348.06;5064127;28;20550;-76
2023/12/12 06:25:13;;;;;;;6.53;3.53;;;;;;;7.57;80.02;97339.88;5065073;28;20211;-76
2023/12/12 06:27:39;;;;;;;5.65;3.65;;;;;;;7.75;79.33;97339.34;5080490;28;20793;-76
2023/12/12 06:30:10;;;;;;;4.82;3.17;;;;;;;7.53;79.47;97337.78;5065817;28;20221;-76
2023/12/12 06:32:36;;;;;;;5.60;4.50;;;;;;;7.52;79.97;97333.44;5083566;28;20200;-76
2023/12/12 06:35:05;;;;;;;8.30;4.55;;;;;;;7.34;80.66;97348.28;5066878;28;20280;-76
2023/12/12 06:37:31;;;;;;;5.82;3.40;;;;;;;7.32;81.07;97361.09;5049806;28;20216;-76
2023/12/12 06:40:00;;;;;;;6.07;3.65;;;;;;;7.37;80.79;97342.50;5065138;28;20219;-76
2023/12/12 06:42:27;;;;;;;7.15;4.78;;;;;;;7.19;80.97;97328.72;5050408;28;20205;-76
2023/12/12 06:44:53;;;;;;;6.13;3.45;;;;;;;7.05;81.79;97332.38;5068347;28;20284;-76
2023/12/12 06:47:20;;;;;;;6.20;3.63;;;;;;;7.13;81.82;97328.69;5066910;28;20650;-77
2023/12/12 06:49:47;;;;;;;6.00;3.70;;;;;;;7.04;82.00;97322.63;5068528;28;20257;-76
2023/12/12 06:52:14;;;;;;;8.80;3.30;;;;;;;7.06;81.79;97313.34;5064949;28;20272;-76
2023/12/12 06:54:41;;;;;;;6.85;3.40;;;;;;;7.02;82.30;97306.69;5064054;28;20213;-77
2023/12/12 06:57:10;;;;;;;3.80;2.83;;;;;;;6.95;82.46;97315.75;5064427;28;20197;-75
2023/12/12 06:59:38;;;;;;;5.20;3.33;;;;;;;7.02;82.29;97311.25;5066083;28;20185;-75
2023/12/12 07:02:04;;;;;;;3.88;2.58;;;;;;;6.99;82.32;97306.25;5064174;28;20209;-75
2023/12/12 07:04:32;;;;;;;2.95;2.40;;;;;;;6.88;82.67;97309.47;5062261;28;20202;-75
2023/12/12 07:06:58;;;;;;;6.05;2.83;;;;;;;6.85;82.59;97315.25;5056433;28;20680;-76
2023/12/12 07:09:25;;;;;;;6.40;2.67;;;;;;;6.88;82.72;97312.19;5061244;28;20551;-76
2023/12/12 07:11:52;;;;;;;3.50;2.42;;;;;;;6.84;82.71;97298.28;5058770;28;20192;-76
2023/12/12 07:14:20;;;;;;;6.55;3.05;;;;;;;7.17;81.79;97295.78;5064171;28;20216;-75
2023/12/12 07:16:46;;;;;;;6.65;2.60;;;;;;;7.34;81.10;97309.75;5065633;28;20201;-75
2023/12/12 07:19:13;;;;;;;4.70;2.55;;;;;;;7.19;81.54;97312.56;5062021;28;20209;-76
2023/12/12 07:21:41;;;;;;;3.05;2.42;;;;;;;7.10;81.97;97303.03;5063442;28;20717;-76
2023/12/12 07:24:10;;;;;;;3.13;2.33;;;;;;;7.02;81.96;97317.47;5064340;28;20192;-76
2023/12/12 07:26:37;;;;;;;4.00;2.60;;;;;;;7.05;81.89;97321.63;5062549;28;20204;-75
2023/12/12 07:29:03;;;;;;;3.80;2.45;;;;;;;7.15;81.55;97323.97;5063089;28;20359;-76
2023/12/12 07:31:31;;;;;;;4.15;2.63;;;;;;;7.12;81.70;97325.19;5080323;28;20555;-76
2023/12/12 07:33:57;;;;;;;3.95;2.35;;;;;;;7.21;81.74;97336.59;5063339;28;20209;-75
2023/12/12 07:36:24;;;;;;;4.85;2.95;;;;;;;7.29;81.38;97331.06;5062719;28;20204;-75
2023/12/12 07:38:51;;;;;;;4.75;2.60;;;;;;;7.28;81.57;97327.53;5063398;28;20207;-75
2023/12/12 07:41:18;;;;;;;4.65;2.42;;;;;;;7.10;81.88;97324.53;5047777;28;20223;-75
2023/12/12 07:43:44;;;;;;;4.32;2.75;;;;;;;7.14;82.20;97331.19;5062796;28;20235;-76
2023/12/12 07:46:11;;;;;;;4.72;2.47;;;;;;;7.03;82.33;97307.53;5060751;28;20193;-76
2023/12/12 07:48:39;;;;;;;4.03;2.38;;;;;;;7.00;82.61;97308.75;5060997;28;20221;-74
2023/12/12 07:51:06;;;;;;;5.57;3.30;;;;;;;7.02;83.01;97303.19;5076210;28;20752;-75
2023/12/12 07:53:34;;;;;;;6.10;2.30;;;;;;;7.28;81.80;97306.00;5060991;28;20214;-76
2023/12/12 07:56:00;;;;;;;3.28;2.20;;;;;;;7.15;81.90;97310.50;5044719;28;20211;-75
2023/12/12 07:58:27;;;;;;;4.20;2.25;;;;;;;7.24;81.77;97318.19;5077557;28;20532;-76
2023/12/12 08:00:53;;;;;;;3.75;2.92;;;;;;;7.31;81.43;97311.00;5062075;28;20311;-76
2023/12/12 08:03:21;;;;;;;4.75;2.50;;;;;;;7.32;81.62;97312.66;5061313;28;20230;-75
2023/12/12 08:05:49;;;;;;;3.42;2.22;;;;;;;7.39;81.54;97318.06;5071055;28;20212;-75
2023/12/12 08:08:15;;;;;;;5.25;2.42;;;;;;;7.46;81.47;97318.13;5063564;28;20205;-76
2023/12/12 08:10:42;;;;;;;3.55;2.40;;;;;;;7.42;81.13;97312.28;5067069;28;20216;-76
2023/12/12 08:13:09;;;;;;;5.47;2.60;;;;;;;7.33;81.93;97305.41;5066823;28;20201;-76
2023/12/12 08:15:38;;;;;;;3.53;2.55;;;;;;;7.24;82.67;97306.59;5056863;28;20205;-76
2023/12/12 08:18:05;;;;;;;5.57;2.70;;;;;;;7.33;83.26;97292.78;5064326;28;20212;-76
2023/12/12 08:20:32;;;;;;;5.80;3.05;;;;;;;7.16;83.97;97280.69;5063332;28;20204;-76
2023/12/12 08:23:01;;;;;;;6.72;2.65;;;;;;;7.20;84.69;97281.94;5084182;28;20554;-76
2023/12/12 08:25:28;;;;;;;5.22;2.72;;;;;;;7.28;84.67;97287.16;5072522;28;20215;-76
2023/12/12 08:27:54;;;;;;;4.38;2.53;;;;;;;7.18;85.27;97273.25;5082978;28;20225;-76
2023/12/12 08:30:21;;;;;;;4.22;2.33;;;;;;;7.35;85.05;97269.19;5066857;28;20221;-76
2023/12/12 08:32:47;;;;;;;4.40;3.13;;;;;;;7.44;84.66;97242.94;5046918;28;20211;-76
2023/12/12 08:35:14;;;;;;;4.50;2.58;;;;;;;7.44;85.16;97234.03;5064494;28;20211;-76
2023/12/12 08:37:41;;;;;;;4.10;2.85;;;;;;;7.36;84.99;97217.03;5086950;28;20654;-76
2023/12/12 08:40:11;;;;;;;3.15;2.58;;;;;;;7.55;85.05;97236.13;5067461;28;20197;-76
2023/12/12 08:42:39;;;;;;;5.25;2.75;;;;;;;7.54;85.11;97235.28;5069237;28;20204;-76
2023/12/12 08:45:06;;;;;;;7.10;3.55;;;;;;;7.69;84.80;97229.75;5049739;28;20193;-76
2023/12/12 08:47:33;;;;;;;4.28;2.97;;;;;;;7.81;83.75;97219.19;5070454;28;20209;-76
2023/12/12 08:50:00;;;;;;;4.50;2.97;;;;;;;7.91;83.32;97225.84;5104373;28;20300;-76
2023/12/12 08:52:26;;;;;;;5.93;3.13;;;;;;;7.95;83.19;97220.88;5070804;28;20245;-76
2023/12/12 08:54:53;;;;;;;3.95;2.95;;;;;;;8.05;82.71;97219.44;5062184;28;20213;-76
2023/12/12 08:57:22;;;;;;;5.60;2.67;;;;;;;8.18;82.63;97215.06;5079130;28;20265;-76
2023/12/12 08:59:48;;;;;;;6.20;2.80;;;;;;;8.27;82.21;97217.34;5113574;28;20204;-77
2023/12/12 09:02:16;;;;;;;3.95;2.70;;;;;;;8.28;81.98;97216.31;5079612;28;20231;-77
2023/12/12 09:04:42;;;;;;;6.82;4.00;;;;;;;8.46;81.42;97223.78;5079702;28;20205;-76
2023/12/12 09:07:09;;;;;;;3.78;3.35;;;;;;;8.34;81.82;97215.53;5057865;28;20276;-76
2023/12/12 09:09:41;;;;;;;4.95;3.33;;;;;;;8.32;81.76;97231.06;5068212;28;20240;-76
2023/12/12 09:12:09;;;;;;;4.78;3.65;;;;;;;8.29;81.85;97219.84;5070200;28;20204;-76
2023/12/12 09:14:37;;;;;;;4.80;2.88;;;;;;;8.19;82.55;97225.63;5068667;28;20553;-77
2023/12/12 09:17:04;;;;;;;5.50;3.42;;;;;;;8.02;83.12;97230.63;5064035;28;20520;-77
2023/12/12 09:19:36;;;;;;;4.45;3.55;;;;;;;7.96;83.57;97222.53;5063881;28;20613;-76
2023/12/12 09:22:10;;;;;;;6.30;3.97;;;;;;;7.87;84.03;97213.81;5062695;28;20197;-76
2023/12/12 09:24:43;;;;;;;3.67;3.33;;;;;;;8.00;83.88;97218.38;5063218;28;20561;-76
2023/12/12 09:27:10;;;;;;;6.50;3.38;;;;;;;7.96;84.09;97217.97;5066369;28;20200;-76
2023/12/12 09:29:38;;;;;;;7.88;4.05;;;;;;;7.97;84.29;97203.47;5063714;28;20249;-76
2023/12/12 09:32:05;;;;;;;5.90;3.55;;;;;;;7.99;84.26;97193.31;5061509;28;20207;-77
2023/12/12 09:34:32;;;;;;;5.05;3.25;;;;;;;7.89;84.49;97190.19;5067881;28;20608;-74
2023/12/12 09:36:58;;;;;;;6.00;4.65;;;;;;;8.02;84.05;97179.44;5057162;28;20197;-75
2023/12/12 09:39:25;;;;;;;6.60;3.70;;;;;;;8.04;84.13;97177.34;5057004;28;20202;-75
2023/12/12 09:41:54;;;;;;;5.60;3.97;;;;;;;8.03;84.41;97175.69;5092459;28;20200;-76
2023/12/12 09:44:20;;;;;;;4.22;3.72;;;;;;;8.19;83.89;97179.81;5093844;28;20284;-75
2023/12/12 09:46:49;;;;;;;4.47;4.07;;;;;;;8.20;83.65;97167.16;5062287;28;20205;-76
2023/12/12 09:49:17;;;;;;;5.47;4.63;;;;;;;8.28;83.85;97173.19;5075598;28;20224;-76
2023/12/12 09:51:45;;;;;;;5.45;4.07;;;;;;;8.51;83.25;97166.53;5060564;28;20408;-76
2023/12/12 09:54:12;;;;;;;6.50;4.82;;;;;;;8.51;83.21;97161.97;5063317;28;20205;-76
2023/12/12 09:56:39;;;;;;;5.95;5.28;;;;;;;8.52;83.08;97165.50;5055097;28;20295;-76
2023/12/12 09:59:06;;;;;;;6.95;5.20;;;;;;;8.59;83.12;97164.44;5068706;28;20205;-76
2023/12/12 10:01:34;;;;;;;7.70;5.00;;;;;;;8.47;83.47;97159.91;5063765;28;20280;-75
2023/12/12 10:04:06;;;;;;;8.55;5.82;;;;;;;8.37;83.84;97160.34;5060755;28;20205;-75
2023/12/12 10:06:36;;;;;;;7.70;5.18;;;;;;;8.50;83.91;97151.41;5078877;28;20214;-74
2023/12/12 10:09:03;;;;;;;5.55;4.97;;;;;;;8.52;84.09;97152.84;5059321;28;20208;-75
2023/12/12 10:11:30;;;;;;;5.50;5.00;;;;;;;8.63;84.23;97141.41;5076991;28;20579;-75
2023/12/12 10:13:58;;;;;;;5.95;5.00;;;;;;;8.65;84.17;97133.94;5041758;28;20221;-75
2023/12/12 10:16:25;;;;;;;10.15;5.30;;;;;;;8.51;84.45;97139.56;5093898;28;20205;-76
2023/12/12 10:18:54;;;;;;;7.47;5.68;;;;;;;8.52;84.39;97133.13;5059080;28;20543;-75
2023/12/12 10:21:26;;;;;;;5.82;5.18;;;;;;;8.23;85.40;97118.25;5063360;28;20198;-75
2023/12/12 10:23:53;;;;;;;7.75;5.05;;;;;;;8.35;85.50;97114.75;5058532;28;20205;-75
2023/12/12 10:26:24;;;;;;;7.35;4.80;;;;;;;8.48;85.32;97111.16;5077032;28;20213;-75
2023/12/12 10:28:52;;;;;;;5.90;4.85;;;;;;;8.49;84.91;97112.81;5058098;28;20694;-75
2023/12/12 10:31:19;;;;;;;5.82;4.28;;;;;;;8.55;85.62;97108.44;5060888;28;20217;-75
2023/12/12 10:33:46;;;;;;;13.05;5.32;;;;;;;8.38;86.82;97108.94;5045444;28;20205;-74
2023/12/12 10:36:12;;;;;;;9.13;5.82;;;;;;;8.28;87.78;97108.50;5061953;28;20212;-74
2023/12/12 10:38:41;;;;;;;8.45;5.30;;;;;;;8.18;88.49;97101.88;5059910;28;20259;-75
2023/12/12 10:41:12;;;;;;;5.72;5.22;;;;;;;8.14;89.58;97098.75;5065232;28;20201;-75
2023/12/12 10:43:41;;;;;;;7.65;5.50;;;;;;;8.14;89.31;97089.84;5078361;28;20205;-75
2023/12/12 10:46:10;;;;;;;6.63;6.03;;;;;;;8.10;90.18;97086.78;5061703;28;20200;-74
2023/12/12 10:48:42;;;;;;;7.03;5.80;;;;;;;8.16;89.80;97077.00;5061134;28;20208;-75
2023/12/12 10:51:10;;;;;;;7.30;5.60;;;;;;;8.06;90.40;97072.06;5061774;28;20213;-74
2023/12/12 10:53:37;;;;;;;7.25;6.32;;;;;;;8.01;91.28;97070.00;5062616;28;20233;-74
2023/12/12 10:56:06;;;;;;;6.90;6.20;;;;;;;7.97;91.47;97062.53;5062678;28;20200;-75
2023/12/12 10:58:33;;;;;;;7.10;6.22;;;;;;;7.94;92.27;97050.31;5065228;28;20205;-75
2023/12/12 11:01:00;;;;;;;7.88;5.95;;;;;;;7.97;92.24;97040.97;5065675;28;20287;-75
2023/12/12 11:03:27;;;;;;;6.60;6.00;;;;;;;8.09;92.14;97028.53;5097997;28;20233;-75
2023/12/12 11:05:55;;;;;;;5.80;5.20;;;;;;;8.08;91.82;97021.47;5048287;28;20216;-75
2023/12/12 11:08:22;;;;;;;6.70;6.10;;;;;;;8.07;93.23;97012.56;5064244;28;20642;-75
2023/12/12 11:10:51;;;;;;;6.03;5.50;;;;;;;8.18;92.90;97011.06;5065064;28;20229;-75
2023/12/12 11:13:26;;;;;;;5.63;5.05;;;;;;;8.16;93.62;97009.63;5059023;28;20246;-75
2023/12/12 11:15:53;;;;;;;6.00;5.20;;;;;;;8.19;93.57;97011.91;5099615;27;20204;-75
2023/12/12 11:18:21;;;;;;;6.13;5.45;;;;;;;8.13;94.11;97007.34;5067416;28;20205;-75
2023/12/12 11:20:48;;;;;;;6.15;5.55;;;;;;;8.16;94.38;96998.84;5066104;28;20205;-75
2023/12/12 11:23:53;;;;;;;5.47;4.95;;;;;;;8.36;93.59;97005.03;5064377;28;20562;-75
2023/12/12 11:26:23;;;;;;;5.43;4.93;;;;;;;8.19;93.94;96996.56;5055609;28;20208;-75
2023/12/12 11:28:51;;;;;;;4.55;4.15;;;;;;;8.38;94.25;96997.56;5050247;28;20197;-76
2023/12/12 11:31:22;;;;;;;5.07;4.00;;;;;;;8.63;93.14;97005.72;5074200;28;20267;-75
2023/12/12 11:34:06;;;;;;;5.55;4.95;;;;;;;8.67;93.15;96988.91;5067538;28;20215;-76
2023/12/12 11:36:50;;;;;;;4.65;4.22;;;;;;;8.72;94.03;96991.78;5071381;28;20220;-76
2023/12/12 11:39:19;;;;;;;5.95;4.28;;;;;;;8.78;93.08;96984.69;5087582;28;20613;-76
2023/12/12 11:41:46;;;;;;;4.97;4.57;;;;;;;8.96;93.06;96970.47;5076956;28;20204;-75